This is the latest recevied weather packets stored in our database for station/object K4IR. If no packets are shown the sender has not sent any weather packets the latest 10 day(s).
| Time | Temp. | Humidity | Pressure | Rain* | Wind** | Luminosity | Snow |
|---|---|---|---|---|---|---|---|
| 1777831832 | 19.44° C | 42% | 1018.3 hPa | 0 mm | - | 774 W/m² | - |
| 1777831226 | 18.89° C | 45% | 1018.6 hPa | 0 mm | - | 786 W/m² | - |
| 1777830626 | 19.44° C | 40% | 1018.5 hPa | 0 mm | - | 792 W/m² | - |
| 1777830026 | 18.89° C | 40% | 1018.7 hPa | 0 mm | - | 799 W/m² | - |
| 1777829423 | 18.89° C | 42% | 1018.6 hPa | 0 mm | - | 808 W/m² | - |
| 1777828818 | 18.33° C | 41% | 1018.6 hPa | 0 mm | - | 813 W/m² | - |
| 1777828212 | 18.33° C | 43% | 1018.6 hPa | 0 mm | - | 813 W/m² | - |
| 1777827611 | 17.78° C | 43% | 1018.7 hPa | 0 mm | - | 814 W/m² | - |
| 1777827011 | 17.78° C | 47% | 1018.9 hPa | 0 mm | - | 813 W/m² | - |
| 1777826410 | 17.22° C | 44% | 1019 hPa | 0 mm | - | 812 W/m² | - |
| 1777825810 | 17.78° C | 44% | 1019.1 hPa | 0 mm | - | 809 W/m² | - |
| 1777825205 | 16.67° C | 45% | 1019.5 hPa | 0 mm | - | 802 W/m² | - |
| 1777824604 | 17.22° C | 46% | 1019.2 hPa | 0 mm | - | 794 W/m² | - |
| 1777824002 | 16.67° C | 42% | 1019.4 hPa | 0 mm | - | 786 W/m² | - |
| 1777823402 | 16.67° C | 43% | 1019.7 hPa | 0 mm | - | 773 W/m² | - |
| 1777822797 | 16.67° C | 41% | 1019.6 hPa | 0 mm | - | 760 W/m² | - |
| 1777822192 | 16.67° C | 45% | 1019.5 hPa | 0 mm | - | 745 W/m² | - |
| 1777821587 | 16.11° C | 43% | 1019.6 hPa | 0 mm | - | 729 W/m² | - |
| 1777820982 | 16.11° C | 47% | 1019.6 hPa | 0 mm | - | 232 W/m² | - |
| 1777820380 | 15.56° C | 42% | 1019.5 hPa | 0 mm | - | 116 W/m² | - |
| 1777819775 | 15.56° C | 42% | 1019.4 hPa | 0 mm | - | 125 W/m² | - |
| 1777819171 | 15° C | 46% | 1019.5 hPa | 0 mm | - | 420 W/m² | - |
| 1777818569 | 15° C | 46% | 1019.3 hPa | 0 mm | - | 84 W/m² | - |
| 1777817968 | 15° C | 44% | 1019.2 hPa | 0 mm | - | 72 W/m² | - |
| 1777817369 | 15° C | 53% | 1019.2 hPa | 0 mm | - | 175 W/m² | - |
* Rain latest hour (hover to see other rain measurements)
** Current wind speed in m/s (hover to see current wind gust speed)